createdAt,value
2022-12-11T08:57:05.798Z,58.53
2022-12-11T08:58:05.673Z,57.63
2022-12-11T08:59:05.593Z,56.71
2022-12-11T09:00:05.472Z,56.07
2022-12-11T09:01:05.483Z,55.37
2022-12-11T09:02:05.238Z,55.09
2022-12-11T09:03:08.478Z,54.79
2022-12-11T09:04:06.011Z,54.48
2022-12-11T09:05:04.855Z,54.35
2022-12-11T09:06:04.780Z,54.10
2022-12-11T09:07:05.206Z,53.91
2022-12-11T09:08:05.408Z,53.67
2022-12-11T09:09:04.837Z,53.56
2022-12-11T09:10:04.534Z,53.68
2022-12-11T09:11:04.469Z,53.24
2022-12-11T09:12:04.889Z,53.16
2022-12-11T09:13:03.762Z,53.06
2022-12-11T09:14:07.534Z,53.11
2022-12-11T09:15:03.517Z,53.00
2022-12-11T09:16:03.549Z,53.09
2022-12-11T09:17:03.244Z,53.12
2022-12-11T09:18:03.113Z,53.09
2022-12-11T09:19:02.955Z,53.13
2022-12-11T09:20:02.870Z,53.11
2022-12-11T09:21:02.711Z,53.10
2022-12-11T09:22:02.565Z,53.56
2022-12-11T09:23:02.428Z,53.46
2022-12-11T09:24:02.435Z,53.32
2022-12-11T09:25:02.143Z,53.25
2022-12-11T09:26:02.034Z,53.25
2022-12-11T09:27:01.886Z,53.33
2022-12-11T09:28:01.793Z,53.23
2022-12-11T09:29:01.611Z,53.27
2022-12-11T09:30:01.503Z,53.71
2022-12-11T09:31:01.404Z,53.44
2022-12-11T09:32:01.276Z,53.80
2022-12-11T09:33:01.238Z,53.57
2022-12-11T09:34:01.060Z,53.44
2022-12-11T09:35:00.832Z,53.43
2022-12-11T09:36:00.730Z,53.45
2022-12-11T09:37:00.597Z,53.64
2022-12-11T09:38:00.477Z,53.87
2022-12-11T09:39:00.314Z,53.82
2022-12-11T09:40:04.146Z,53.64
2022-12-11T09:41:01.098Z,53.71
2022-12-11T09:41:59.954Z,53.76
2022-12-11T09:42:59.932Z,53.91
2022-12-11T09:43:59.662Z,53.54
2022-12-11T09:44:59.585Z,53.53
2022-12-11T09:45:59.497Z,53.55
2022-12-11T09:46:59.287Z,54.03
2022-12-11T09:47:59.149Z,53.76
2022-12-11T09:48:59.045Z,53.60
2022-12-11T09:49:58.900Z,53.75
2022-12-11T09:50:58.807Z,53.73
2022-12-11T09:51:59.298Z,53.72
2022-12-11T09:52:58.548Z,53.81
2022-12-11T09:53:58.401Z,53.87
2022-12-11T09:54:58.256Z,53.85
2022-12-11T09:55:58.180Z,53.90
2022-12-11T09:56:58.068Z,53.81
2022-12-11T09:57:57.870Z,53.84
2022-12-11T09:58:57.780Z,53.87
2022-12-11T10:00:04.252Z,54.06
2022-12-11T10:00:58.522Z,53.93
2022-12-11T10:01:57.392Z,53.93
2022-12-11T10:02:57.416Z,53.95
2022-12-11T10:03:57.113Z,54.03
2022-12-11T10:04:57.011Z,54.05
2022-12-11T10:06:01.132Z,54.19
2022-12-11T10:06:57.775Z,53.93
2022-12-11T10:07:56.702Z,53.75
2022-12-11T10:08:56.501Z,53.60
2022-12-11T10:09:56.359Z,53.63
2022-12-11T10:10:56.247Z,53.67
2022-12-11T10:11:57.043Z,53.64
2022-12-11T10:12:55.979Z,53.68
2022-12-11T10:13:55.840Z,53.64
2022-12-11T10:14:55.798Z,53.67
2022-12-11T10:15:55.648Z,54.21
2022-12-11T10:16:55.485Z,54.34
2022-12-11T10:17:57.547Z,54.40
2022-12-11T10:18:56.231Z,54.44
2022-12-11T10:19:55.099Z,54.61
2022-12-11T10:20:54.960Z,54.49
2022-12-11T10:21:54.844Z,54.55
2022-12-11T10:22:54.729Z,54.33
2022-12-11T10:23:54.614Z,54.30
2022-12-11T10:25:11.584Z,54.21
2022-12-11T10:25:55.376Z,54.09
2022-12-11T10:26:54.199Z,54.26
2022-12-11T10:27:54.111Z,54.21
2022-12-11T10:28:53.951Z,54.40
2022-12-11T10:29:53.874Z,54.34
2022-12-11T10:30:53.820Z,54.35
2022-12-11T10:31:53.642Z,54.34
2022-12-11T10:32:53.477Z,54.44
2022-12-11T10:33:53.399Z,54.88
2022-12-11T10:34:53.215Z,54.70
2022-12-11T10:35:53.128Z,54.66
2022-12-11T10:36:58.793Z,54.66
2022-12-11T10:37:53.910Z,54.67
2022-12-11T10:38:52.744Z,54.90
2022-12-11T10:39:52.632Z,54.60
2022-12-11T10:40:52.509Z,54.57
2022-12-11T10:41:52.408Z,54.47
2022-12-11T10:42:52.250Z,54.39
2022-12-11T10:43:52.239Z,54.82
2022-12-11T10:44:52.062Z,55.30
2022-12-11T10:45:51.931Z,55.16
2022-12-11T10:46:51.843Z,55.09
2022-12-11T10:47:51.879Z,54.87
2022-12-11T10:48:51.554Z,55.81
2022-12-11T10:49:51.446Z,55.25
2022-12-11T10:50:51.298Z,55.42
2022-12-11T10:51:51.215Z,55.33
2022-12-11T10:52:51.058Z,55.96
2022-12-11T10:53:51.016Z,55.80
2022-12-11T10:54:50.862Z,55.96
2022-12-11T10:55:50.727Z,55.63
2022-12-11T10:56:50.584Z,55.73
2022-12-11T10:57:50.481Z,56.34
2022-12-11T10:58:50.302Z,56.18
2022-12-11T10:59:50.274Z,55.70
2022-12-11T11:00:50.115Z,55.73
2022-12-11T11:01:50.039Z,55.90
2022-12-11T11:02:50.032Z,55.76
2022-12-11T11:03:49.724Z,55.85
2022-12-11T11:04:49.588Z,56.07
2022-12-11T11:05:49.784Z,56.66
2022-12-11T11:06:49.314Z,56.34
2022-12-11T11:07:49.404Z,56.18
2022-12-11T11:08:49.084Z,56.04
2022-12-11T11:09:48.971Z,57.05
2022-12-11T11:10:48.849Z,56.44
2022-12-11T11:11:48.739Z,56.95
2022-12-11T11:12:48.586Z,56.69
2022-12-11T11:13:48.502Z,56.53
2022-12-11T11:14:48.315Z,56.63
2022-12-11T11:15:48.317Z,56.84
2022-12-11T11:16:48.070Z,56.56
2022-12-11T11:17:54.657Z,56.26
2022-12-11T11:18:48.833Z,57.09
2022-12-11T11:19:47.878Z,57.03
2022-12-11T11:20:47.599Z,57.41
2022-12-11T11:21:47.469Z,56.61
2022-12-11T11:22:47.337Z,56.97
2022-12-11T11:23:50.611Z,57.03
2022-12-11T11:24:48.092Z,56.93
2022-12-11T11:25:46.942Z,56.86
2022-12-11T11:27:12.124Z,56.81
2022-12-11T11:27:47.703Z,56.98
2022-12-11T11:28:46.523Z,57.63
2022-12-11T11:29:51.544Z,57.26
2022-12-11T11:30:47.427Z,57.65
2022-12-11T11:31:46.175Z,57.10
2022-12-11T11:32:46.034Z,56.83
2022-12-11T11:33:45.925Z,57.51
2022-12-11T11:34:45.795Z,57.53
2022-12-11T11:35:46.001Z,57.43
2022-12-11T11:36:45.524Z,57.14
2022-12-11T11:37:45.387Z,57.71
2022-12-11T11:38:45.289Z,57.57
2022-12-11T11:39:45.146Z,58.03
2022-12-11T11:40:45.032Z,57.31
2022-12-11T11:41:44.852Z,57.58
2022-12-11T11:42:44.778Z,57.57
2022-12-11T11:43:44.614Z,57.17
2022-12-11T11:44:44.514Z,56.95
2022-12-11T11:45:44.908Z,56.83
2022-12-11T11:46:45.678Z,56.81
2022-12-11T11:47:44.607Z,56.65
2022-12-11T11:48:44.880Z,56.92
2022-12-11T11:49:44.356Z,57.03
2022-12-11T11:50:44.566Z,56.82
2022-12-11T11:51:44.199Z,56.88
2022-12-11T11:52:43.479Z,56.84
2022-12-11T11:53:43.331Z,56.66
2022-12-11T11:54:43.242Z,57.07
2022-12-11T11:55:43.068Z,56.93
2022-12-11T11:56:42.939Z,56.70
2022-12-11T11:57:42.795Z,56.74
2022-12-11T11:58:42.714Z,56.70
2022-12-11T11:59:42.562Z,56.81
2022-12-11T12:00:42.466Z,56.67
2022-12-11T12:01:42.280Z,56.73
2022-12-11T12:02:42.248Z,56.79
2022-12-11T12:03:42.030Z,57.25
2022-12-11T12:04:41.927Z,57.42
2022-12-11T12:05:41.776Z,57.62
2022-12-11T12:06:46.024Z,57.64
2022-12-11T12:07:42.572Z,57.25
2022-12-11T12:08:41.421Z,57.70
2022-12-11T12:09:41.319Z,58.33
2022-12-11T12:10:41.146Z,58.16
2022-12-11T12:11:41.036Z,58.01
2022-12-11T12:12:40.927Z,57.87
2022-12-11T12:13:52.719Z,57.87
2022-12-11T12:14:52.152Z,57.92
2022-12-11T12:15:41.531Z,57.91
2022-12-11T12:16:55.887Z,57.95
2022-12-11T12:17:41.340Z,57.94
2022-12-11T12:18:40.170Z,58.10
2022-12-11T12:19:40.044Z,58.11
2022-12-11T12:20:39.915Z,58.08
2022-12-11T12:21:39.802Z,58.11
2022-12-11T12:22:39.660Z,58.24
2022-12-11T12:23:39.562Z,58.20
2022-12-11T12:24:39.430Z,58.16
2022-12-11T12:25:39.324Z,58.19
2022-12-11T12:26:39.158Z,58.12
2022-12-11T12:27:54.524Z,58.14
2022-12-11T12:28:39.985Z,58.08
2022-12-11T12:29:38.801Z,58.13
2022-12-11T12:30:38.704Z,58.09
2022-12-11T12:31:38.629Z,58.02
2022-12-11T12:32:38.492Z,58.11
2022-12-11T12:33:38.339Z,58.02
2022-12-11T12:34:38.229Z,58.00
2022-12-11T12:35:38.077Z,58.10
2022-12-11T12:36:38.016Z,58.11
2022-12-11T12:37:37.918Z,58.00
2022-12-11T12:38:37.740Z,57.74
2022-12-11T12:39:37.620Z,57.72
2022-12-11T12:40:37.520Z,57.73
2022-12-11T12:41:37.355Z,57.72
2022-12-11T12:42:37.278Z,57.80
2022-12-11T12:43:37.170Z,57.72
2022-12-11T12:44:37.105Z,57.86
2022-12-11T12:45:36.987Z,57.77
2022-12-11T12:46:36.876Z,57.67
2022-12-11T12:47:36.652Z,57.68
2022-12-11T12:48:36.567Z,57.61
2022-12-11T12:49:36.434Z,57.56
2022-12-11T12:50:36.358Z,57.59
2022-12-11T12:51:36.167Z,57.62
2022-12-11T12:52:36.472Z,57.35
2022-12-11T12:53:35.996Z,57.35
2022-12-11T12:54:35.876Z,57.47
2022-12-11T12:55:35.699Z,57.42
2022-12-11T12:56:35.790Z,57.40
2022-12-11T12:57:36.214Z,57.42
2022-12-11T12:58:35.431Z,57.41
2022-12-11T12:59:35.256Z,57.42
2022-12-11T13:00:35.171Z,57.43
2022-12-11T13:01:35.691Z,57.38
2022-12-11T13:02:34.957Z,57.34
2022-12-11T13:03:34.759Z,57.36
2022-12-11T13:04:54.892Z,57.34
2022-12-11T13:05:35.533Z,57.24
2022-12-11T13:06:34.441Z,57.23
2022-12-11T13:07:34.304Z,57.30
2022-12-11T13:08:34.299Z,57.23
2022-12-11T13:09:34.040Z,57.28
2022-12-11T13:10:34.014Z,57.22
2022-12-11T13:11:33.812Z,57.18
2022-12-11T13:12:33.666Z,57.11
2022-12-11T13:13:33.563Z,57.09
2022-12-11T13:14:33.445Z,57.13
2022-12-11T13:15:33.380Z,57.05
2022-12-11T13:16:33.251Z,57.11
2022-12-11T13:17:33.116Z,57.02
2022-12-11T13:18:32.951Z,57.06
2022-12-11T13:19:36.460Z,57.01
2022-12-11T13:20:33.806Z,57.00
2022-12-11T13:21:32.591Z,57.04
2022-12-11T13:22:32.506Z,56.97
2022-12-11T13:23:32.350Z,56.99
2022-12-11T13:24:32.309Z,56.96
2022-12-11T13:25:32.116Z,56.95
2022-12-11T13:26:32.036Z,56.93
2022-12-11T13:27:31.869Z,56.93
2022-12-11T13:28:31.915Z,56.88
2022-12-11T13:29:31.664Z,56.86
2022-12-11T13:30:31.569Z,56.83
2022-12-11T13:31:31.440Z,56.87
2022-12-11T13:32:31.362Z,56.81
2022-12-11T13:33:31.166Z,56.81
2022-12-11T13:34:31.087Z,56.80
2022-12-11T13:35:30.940Z,57.08
2022-12-11T13:36:31.122Z,56.87
2022-12-11T13:37:30.706Z,57.02
2022-12-11T13:38:30.628Z,56.79
2022-12-11T13:39:30.461Z,56.67
2022-12-11T13:40:30.378Z,56.77
2022-12-11T13:41:30.225Z,56.90
2022-12-11T13:42:30.131Z,55.33
2022-12-11T13:43:30.042Z,49.24
2022-12-11T13:44:30.398Z,39.68
2022-12-11T13:45:29.834Z,35.82
2022-12-11T13:46:30.273Z,35.33
2022-12-11T13:47:29.569Z,36.00
2022-12-11T13:48:29.516Z,38.79
2022-12-11T13:49:29.802Z,40.73
2022-12-11T13:50:29.350Z,41.35
2022-12-11T13:51:29.226Z,41.92
2022-12-11T13:52:29.185Z,43.35
2022-12-11T13:53:29.031Z,43.29
2022-12-11T13:54:28.978Z,43.99
2022-12-11T13:55:28.841Z,44.63
2022-12-11T13:56:28.793Z,44.97
2022-12-11T13:57:28.654Z,45.29
2022-12-11T13:58:28.572Z,45.27
2022-12-11T13:59:28.432Z,45.08
2022-12-11T14:00:28.328Z,45.88
2022-12-11T14:01:28.230Z,45.45
2022-12-11T14:02:28.175Z,45.86
2022-12-11T14:03:27.992Z,46.04
2022-12-11T14:04:27.890Z,46.45
2022-12-11T14:05:27.734Z,46.06
2022-12-11T14:06:27.718Z,46.95
2022-12-11T14:07:27.529Z,46.53
2022-12-11T14:08:27.478Z,47.22
2022-12-11T14:09:27.262Z,47.42
2022-12-11T14:10:27.201Z,47.76
2022-12-11T14:11:27.071Z,48.04
2022-12-11T14:12:26.952Z,48.19
2022-12-11T14:13:26.798Z,48.42
2022-12-11T14:14:26.728Z,48.42
2022-12-11T14:15:26.556Z,48.35
2022-12-11T14:16:26.597Z,48.58
2022-12-11T14:17:26.323Z,48.44
2022-12-11T14:18:26.236Z,48.70
2022-12-11T14:19:26.082Z,48.56
2022-12-11T14:20:26.006Z,48.69
2022-12-11T14:21:25.817Z,48.78
2022-12-11T14:22:25.731Z,48.73
2022-12-11T14:23:25.547Z,48.88
2022-12-11T14:24:25.492Z,48.85
2022-12-11T14:25:25.335Z,48.71
2022-12-11T14:26:25.204Z,48.84
2022-12-11T14:27:25.131Z,48.89
2022-12-11T14:28:25.041Z,48.99
2022-12-11T14:29:24.881Z,49.13
2022-12-11T14:30:24.920Z,49.07
2022-12-11T14:31:24.541Z,49.09
2022-12-11T14:32:24.449Z,49.16
2022-12-11T14:33:24.306Z,48.82
2022-12-11T14:34:24.166Z,49.02
2022-12-11T14:35:23.966Z,49.16
2022-12-11T14:36:23.923Z,49.08
2022-12-11T14:37:23.736Z,49.25
2022-12-11T14:38:23.605Z,49.17
2022-12-11T14:39:23.435Z,49.22
2022-12-11T14:40:23.378Z,49.32
2022-12-11T14:41:23.318Z,49.86
2022-12-11T14:42:23.077Z,50.53
2022-12-11T14:43:22.923Z,50.21
2022-12-11T14:44:22.878Z,50.15
2022-12-11T14:45:22.675Z,49.89
2022-12-11T14:46:22.668Z,49.77
2022-12-11T14:47:22.374Z,50.10
2022-12-11T14:48:22.315Z,50.03
2022-12-11T14:49:22.115Z,50.04
2022-12-11T14:50:22.033Z,50.11
2022-12-11T14:51:21.867Z,50.10
2022-12-11T14:52:21.745Z,50.16
2022-12-11T14:53:21.578Z,50.22
2022-12-11T14:54:21.549Z,50.33
2022-12-11T14:55:21.358Z,50.31
2022-12-11T14:56:21.268Z,50.38
2022-12-11T14:57:21.070Z,50.44
2022-12-11T14:58:20.976Z,50.50
2022-12-11T14:59:20.824Z,50.50
2022-12-11T15:00:20.717Z,50.60
2022-12-11T15:01:20.607Z,50.78
2022-12-11T15:02:20.561Z,50.86
2022-12-11T15:03:20.342Z,50.98
2022-12-11T15:04:20.211Z,50.78
2022-12-11T15:05:20.050Z,51.03
2022-12-11T15:06:19.985Z,51.12
2022-12-11T15:07:19.765Z,51.26
2022-12-11T15:08:19.697Z,51.23
2022-12-11T15:09:19.559Z,51.35
2022-12-11T15:10:19.461Z,51.41
2022-12-11T15:11:19.248Z,51.47
2022-12-11T15:12:19.133Z,51.51
2022-12-11T15:13:19.019Z,51.50
2022-12-11T15:14:18.999Z,51.66
2022-12-11T15:15:18.711Z,51.67
2022-12-11T15:16:18.639Z,51.59
2022-12-11T15:17:18.457Z,51.66
2022-12-11T15:18:18.367Z,51.71
2022-12-11T15:19:18.204Z,51.80
2022-12-11T15:20:18.187Z,51.75
2022-12-11T15:21:17.918Z,51.79
2022-12-11T15:22:17.827Z,51.82
2022-12-11T15:23:18.866Z,51.82
2022-12-11T15:24:17.574Z,51.86
2022-12-11T15:25:17.404Z,51.92
2022-12-11T15:26:17.304Z,51.93
2022-12-11T15:27:17.108Z,51.96
2022-12-11T15:28:17.066Z,51.98
2022-12-11T15:29:16.856Z,52.02
2022-12-11T15:30:16.900Z,51.99
2022-12-11T15:31:16.660Z,51.99
2022-12-11T15:32:16.573Z,52.10
2022-12-11T15:33:16.325Z,52.01
2022-12-11T15:34:16.350Z,52.12
2022-12-11T15:35:16.086Z,52.15
2022-12-11T15:36:15.987Z,52.12
2022-12-11T15:37:15.809Z,52.17
2022-12-11T15:38:15.722Z,52.19
2022-12-11T15:39:15.663Z,52.18
2022-12-11T15:40:15.456Z,52.20
2022-12-11T15:41:15.320Z,52.24
2022-12-11T15:42:15.222Z,52.24
2022-12-11T15:43:15.055Z,52.27
2022-12-11T15:44:14.955Z,52.29
2022-12-11T15:45:14.841Z,52.34
2022-12-11T15:46:14.757Z,52.34
2022-12-11T15:47:14.538Z,52.34
2022-12-11T15:48:14.433Z,52.38
2022-12-11T15:49:14.298Z,52.40
2022-12-11T15:50:14.462Z,52.46
2022-12-11T15:51:14.011Z,52.40
2022-12-11T15:52:13.962Z,52.44
2022-12-11T15:53:13.764Z,52.39
2022-12-11T15:54:13.635Z,52.45
2022-12-11T15:55:13.876Z,52.46
2022-12-11T15:56:13.427Z,52.49
2022-12-11T15:57:13.238Z,52.48
2022-12-11T15:58:13.158Z,52.47
2022-12-11T15:59:12.955Z,52.49
2022-12-11T16:00:12.841Z,52.50
2022-12-11T16:01:12.760Z,52.54
2022-12-11T16:02:12.770Z,52.53
2022-12-11T16:03:12.567Z,52.53
2022-12-11T16:04:12.339Z,52.54
2022-12-11T16:05:12.381Z,52.58
2022-12-11T16:06:12.091Z,52.58
2022-12-11T16:07:11.936Z,52.57
2022-12-11T16:08:11.823Z,52.54
2022-12-11T16:09:11.725Z,52.51
2022-12-11T16:10:11.541Z,52.51
2022-12-11T16:11:11.477Z,52.47
2022-12-11T16:12:11.258Z,52.48
2022-12-11T16:13:11.134Z,52.48
2022-12-11T16:14:11.080Z,52.51
2022-12-11T16:15:11.298Z,52.52
2022-12-11T16:16:10.920Z,52.53
2022-12-11T16:17:10.608Z,52.55
2022-12-11T16:18:10.490Z,52.51
2022-12-11T16:19:10.359Z,52.58
2022-12-11T16:20:10.235Z,52.65
2022-12-11T16:21:10.094Z,52.62
2022-12-11T16:22:09.983Z,52.91
2022-12-11T16:23:09.825Z,52.95
2022-12-11T16:24:09.708Z,53.07
2022-12-11T16:25:09.977Z,53.12
2022-12-11T16:26:09.443Z,53.19
2022-12-11T16:27:09.296Z,53.27
2022-12-11T16:28:09.241Z,53.20
2022-12-11T16:29:09.087Z,53.27
2022-12-11T16:30:09.007Z,53.35
2022-12-11T16:31:08.842Z,53.47
2022-12-11T16:32:08.685Z,53.49
2022-12-11T16:33:12.446Z,53.71
2022-12-11T16:34:08.408Z,53.53
2022-12-11T16:35:08.236Z,53.61
2022-12-11T16:36:08.164Z,53.70
2022-12-11T16:37:08.007Z,53.78
2022-12-11T16:38:07.869Z,53.88
2022-12-11T16:39:07.783Z,53.82
2022-12-11T16:40:12.627Z,53.79
2022-12-11T16:41:08.568Z,53.75
2022-12-11T16:42:07.292Z,53.77
2022-12-11T16:43:07.203Z,53.79
2022-12-11T16:44:07.011Z,53.84
2022-12-11T16:45:07.029Z,53.79
2022-12-11T16:46:06.775Z,53.80
2022-12-11T16:47:06.614Z,53.83
2022-12-11T16:48:06.459Z,53.73
2022-12-11T16:49:06.371Z,53.63
2022-12-11T16:50:06.195Z,53.75
2022-12-11T16:51:06.124Z,53.71
2022-12-11T16:52:05.930Z,53.90
2022-12-11T16:53:05.798Z,53.97
2022-12-11T16:54:05.638Z,54.05
2022-12-11T16:55:05.553Z,54.06
2022-12-11T16:56:05.380Z,54.04
2022-12-11T16:57:05.411Z,54.21
2022-12-11T16:58:05.116Z,54.27
2022-12-11T16:59:05.020Z,54.20
2022-12-11T17:00:04.833Z,54.17
2022-12-11T17:01:04.797Z,54.08
2022-12-11T17:02:04.586Z,54.01
2022-12-11T17:03:04.539Z,54.07
2022-12-11T17:04:04.287Z,54.21
2022-12-11T17:05:04.198Z,54.18
2022-12-11T17:06:04.051Z,53.99
2022-12-11T17:07:03.930Z,53.79
2022-12-11T17:08:03.798Z,53.76
2022-12-11T17:09:03.716Z,53.84
2022-12-11T17:10:03.560Z,53.82
2022-12-11T17:11:03.462Z,53.69
2022-12-11T17:12:03.225Z,53.74
2022-12-11T17:13:03.164Z,53.58
2022-12-11T17:14:02.932Z,53.74
2022-12-11T17:15:02.985Z,53.63
2022-12-11T17:16:02.702Z,53.53
2022-12-11T17:17:02.548Z,53.51
2022-12-11T17:18:02.397Z,53.48
2022-12-11T17:19:02.306Z,53.43
2022-12-11T17:20:02.192Z,53.42
2022-12-11T17:21:02.057Z,53.44
2022-12-11T17:22:01.843Z,53.41
2022-12-11T17:23:01.770Z,53.36
2022-12-11T17:24:01.711Z,53.40
2022-12-11T17:25:01.459Z,53.32
2022-12-11T17:26:01.769Z,53.32
2022-12-11T17:27:01.304Z,53.31
2022-12-11T17:28:01.005Z,53.12
2022-12-11T17:29:00.918Z,53.09
2022-12-11T17:30:00.759Z,53.27
2022-12-11T17:31:00.742Z,53.27
2022-12-11T17:32:00.471Z,53.20
2022-12-11T17:33:00.387Z,53.16
2022-12-11T17:34:00.179Z,53.20
2022-12-11T17:35:00.107Z,53.18
2022-12-11T17:35:59.961Z,53.05
2022-12-11T17:36:59.837Z,53.02
2022-12-11T17:37:59.661Z,53.09
2022-12-11T17:38:59.551Z,53.26
2022-12-11T17:39:59.400Z,53.13
2022-12-11T17:40:59.297Z,53.17
2022-12-11T17:41:59.225Z,53.25
2022-12-11T17:42:59.005Z,53.23
2022-12-11T17:43:58.884Z,53.20
2022-12-11T17:44:58.778Z,53.25
2022-12-11T17:45:58.628Z,53.29
2022-12-11T17:46:58.476Z,53.29
2022-12-11T17:47:58.306Z,53.32
2022-12-11T17:48:58.212Z,53.34
2022-12-11T17:49:58.029Z,53.38
2022-12-11T17:50:58.009Z,53.34
2022-12-11T17:51:57.857Z,53.38
2022-12-11T17:52:57.669Z,53.36
2022-12-11T17:53:57.486Z,53.37
2022-12-11T17:54:57.383Z,53.36
2022-12-11T17:55:57.302Z,53.40
2022-12-11T17:56:57.156Z,53.34
2022-12-11T17:57:56.941Z,53.27
2022-12-11T17:58:56.898Z,53.33
2022-12-11T17:59:56.817Z,53.28
2022-12-11T18:00:56.630Z,53.32
2022-12-11T18:01:56.528Z,53.33
2022-12-11T18:02:56.358Z,53.25
2022-12-11T18:03:56.256Z,53.37
2022-12-11T18:04:56.088Z,53.38
2022-12-11T18:05:55.979Z,53.39
2022-12-11T18:06:55.831Z,53.41
2022-12-11T18:07:57.960Z,53.25
2022-12-11T18:08:55.778Z,50.97
2022-12-11T18:09:55.631Z,46.53
2022-12-11T18:10:55.542Z,44.50
2022-12-11T18:11:55.497Z,40.73
2022-12-11T18:12:55.277Z,38.68
2022-12-11T18:13:55.167Z,38.08
2022-12-11T18:14:55.186Z,36.22
2022-12-11T18:15:54.975Z,35.70
2022-12-11T18:16:54.869Z,34.48
2022-12-11T18:17:54.748Z,38.76
2022-12-11T18:18:54.669Z,41.09
2022-12-11T18:20:03.151Z,42.83
2022-12-11T18:20:54.666Z,42.37
2022-12-11T18:21:54.567Z,42.60
2022-12-11T18:22:54.437Z,43.50
2022-12-11T18:23:54.521Z,43.91
2022-12-11T18:24:54.235Z,44.04
2022-12-11T18:25:54.101Z,44.08
2022-12-11T18:26:53.980Z,44.16
2022-12-11T18:27:53.933Z,44.43
2022-12-11T18:28:53.739Z,44.27
2022-12-11T18:29:53.674Z,44.55
2022-12-11T18:30:53.509Z,44.47
2022-12-11T18:31:53.404Z,44.85
2022-12-11T18:32:53.267Z,44.87
2022-12-11T18:33:53.118Z,44.83
2022-12-11T18:34:52.975Z,44.89
2022-12-11T18:35:52.867Z,45.02
2022-12-11T18:36:52.736Z,45.28
2022-12-11T18:37:52.743Z,45.07
2022-12-11T18:38:52.472Z,45.62
2022-12-11T18:39:52.579Z,45.56
2022-12-11T18:40:52.204Z,45.86
2022-12-11T18:42:23.901Z,45.82
2022-12-11T18:42:53.024Z,46.08
2022-12-11T18:43:51.800Z,45.95
2022-12-11T18:44:51.716Z,46.00
2022-12-11T18:45:51.572Z,46.50
2022-12-11T18:46:51.564Z,46.95
2022-12-11T18:47:51.296Z,46.91
2022-12-11T18:48:51.181Z,46.82
2022-12-11T18:49:52.069Z,46.83
2022-12-11T18:50:50.940Z,46.83
2022-12-11T18:51:50.748Z,46.86
2022-12-11T18:52:50.669Z,47.21
2022-12-11T18:53:50.540Z,47.19
